Aeroporto :
LOGIN :

Iscrizione | Disclaimer

   EN    FR    IT 

 










Sommario :    VFR   VFR Marginale   IFR   IFR Intensivo   IFR Molto Intensivo
Visibilità : 
Base nubi : 
>= 8 km
>= 3000ft
5 / 8 km
1000 / 3000 ft
1500m / 5 km
500 / 1000 ft
800 / 1500m
200 / 500 ft
< 800m
< 200 ft
Simboli :   Temporali  Nebbia  Neve Forte  Precipitazioni Forti  Vento > 20 kt
SIGMETs :   Varie  Temporali  Ghiacco  Turbolenza  Onda orograficha  Ceneri Vulcaniche






- Altitudine del aeroporto : 26 ft
- Codice IATA : SYY


EGPO - Stornoway

ULTIMO METAR :
  • 250750Z 20010KT 9999 -SHRA FEW020CB SCT031 06/05 Q1002

METARs OBSOLETI :
  • 250720Z 21011KT 9999 VCSH FEW020CB SCT031 07/05 Q1001
  • 250650Z 20006KT 9999 VCSH FEW020CB SCT032 06/05 Q1001
  • 250620Z 22011KT 9999 VCSH FEW020CB SCT032 07/05 Q1001
  • 250550Z AUTO 20011KT 9999 FEW031/// SCT041/// 06/05 Q1000
  • 250520Z AUTO 20010KT 9999 SCT032/// 06/05 Q1000

TAF TAF EGPO
Valido dal 25 a 06 ore il 25 a 15 ore UTC


250458Z 2506/2515 22009KT 9999 FEW020
TEMPO 2506/2515 6000 SHRA
PROB30
TEMPO 2506/2514 4000 +SHRA SHRAGS BKN014CB
BECMG 2510/2513 34010KT
ATIS : +44 1851 707 444



MetMap, La meteo Aeronautica in un colpo d'occhio ! - Copyright ORBIFLY Dicembre 2007 - Disclaimer

ORBIFLY MET'MAP TEAM :

Programmazione e sviluppo : Alexandra Zaïnal
Concezione : Baudouin d'Aumeries
Aiuto per la programmazione : Marc-Olivier Méhu
Supporto tecnico e logistico : Manuel Goepfert
Aiuto per la traduzione : Arnaldo La Scala

Contatto : metmap@orbifly.com




FONTI E CREDITI :

   NOAA